Portada
METAR-TAF:

METAR-TAF

Aeroports :

Darlington County Jetport

Darlington, Carolina del Sud, Estats Units d'Amèrica

latitud: 34-26-57N, longitud: 079-53-25W, altitud: 59 m

Observació

L'informe es va fer fa 44 minuts, a les 22:56 UTC
Vent 3 kt del Est/Nord-Est
Temperatura 2°C
Humitat 64%
Pressió 1029 hPa
Visibilitat: 14.5 km
Cel clar

METAR: KUDG 132256Z AUTO 06003KT 9SM CLR 02/M04 A3038 RMK AO2 SLP290 T00171039 FZRANO

Hora: 18:40 (23:40 UTC)


TAF: manca

Observacions i pronòstics meteorològics de més de 4000 aeroports (METAR i TAF).

Les estacions disponibles són els punts grocs i vermells al mapa.

Posi el ratolí al punt desitjat per veure el nom de l'estació.

Feu clic per veure les observacions i els pronòstics meteorològics.

Per canviar el mapa: feu clic els botons verds amb una creu de color negre per apropar; al botó verd amb un guió per allunyar la imatge; o en les fletxes verdes per a mapes adjacents.


METAR-TAF: